Time;durP1;ratioP1;P1;durP2;ratioP2;P2;SDS_P1;SDS_P2;PMS_P1;PMS_P2;Temp;Humidity;BMP_temperature;BMP_pressure;BME280_temperature;BME280_humidity;BME280_pressure;Samples;Min_cycle;Max_cycle;Signal;HPM_P1;HPM_P2
2021/01/25 00:02:09;;;;;;;4.80;2.40;;;;;;;2.19;96.55;96440.19;5048082;28;20237;-71
2021/01/25 00:04:36;;;;;;;4.50;2.17;;;;;;;2.19;96.78;96435.72;5048326;28;20676;-72
2021/01/25 00:07:04;;;;;;;5.53;1.70;;;;;;;2.35;94.34;96440.72;5043237;28;20214;-71
2021/01/25 00:09:31;;;;;;;5.37;2.07;;;;;;;2.34;95.37;96435.66;5050654;28;20221;-71
2021/01/25 00:11:58;;;;;;;4.53;2.07;;;;;;;2.48;93.41;96427.69;5047911;28;20599;-72
2021/01/25 00:14:25;;;;;;;4.60;1.97;;;;;;;2.47;94.22;96420.81;5050320;28;20212;-72
2021/01/25 00:16:52;;;;;;;3.27;2.23;;;;;;;2.46;97.11;96415.72;5052044;28;20202;-72
2021/01/25 00:19:18;;;;;;;3.30;2.03;;;;;;;2.52;96.86;96409.69;5049725;28;20240;-71
2021/01/25 00:21:45;;;;;;;4.10;2.03;;;;;;;2.18;97.63;96402.50;5045781;28;20632;-72
2021/01/25 00:24:13;;;;;;;4.70;1.87;;;;;;;2.01;98.17;96405.56;5051249;28;20212;-72
2021/01/25 00:26:40;;;;;;;4.80;1.60;;;;;;;1.91;94.68;96398.00;5050782;28;20206;-72
2021/01/25 00:29:06;;;;;;;4.60;1.97;;;;;;;1.85;93.28;96397.94;5042875;28;20295;-71
2021/01/25 00:31:33;;;;;;;4.70;2.20;;;;;;;1.84;94.95;96401.56;5045556;28;20248;-71
2021/01/25 00:34:00;;;;;;;2.77;1.80;;;;;;;1.86;95.93;96395.13;5048705;28;20559;-71
2021/01/25 00:36:27;;;;;;;3.57;2.00;;;;;;;2.04;95.13;96387.59;5048893;28;20205;-71
2021/01/25 00:38:53;;;;;;;2.83;1.70;;;;;;;1.99;97.05;96400.50;5047497;28;20233;-72
2021/01/25 00:41:21;;;;;;;2.60;1.77;;;;;;;2.15;97.65;96397.66;5049366;28;20717;-71
2021/01/25 00:43:48;;;;;;;4.70;1.80;;;;;;;2.16;97.44;96394.00;5046729;28;20674;-71
2021/01/25 00:46:15;;;;;;;8.90;2.43;;;;;;;2.05;96.90;96397.16;5051406;28;20551;-71
2021/01/25 00:48:41;;;;;;;3.87;2.03;;;;;;;2.18;97.89;96392.00;5048960;28;20866;-75
2021/01/25 00:51:08;;;;;;;3.80;1.90;;;;;;;2.29;94.58;96398.59;5045044;28;20670;-71
2021/01/25 00:53:35;;;;;;;3.23;1.73;;;;;;;2.27;94.49;96385.59;5047914;28;20202;-71
2021/01/25 00:56:02;;;;;;;4.13;1.70;;;;;;;2.28;92.92;96392.50;5050558;28;20202;-72
2021/01/25 00:58:30;;;;;;;2.33;1.37;;;;;;;2.21;93.45;96391.63;5046837;28;20208;-72
2021/01/25 01:00:56;;;;;;;6.90;1.90;;;;;;;2.32;93.56;96385.03;5048794;28;21004;-72
2021/01/25 01:03:23;;;;;;;4.20;1.63;;;;;;;2.23;94.77;96388.78;5050100;28;20662;-71
2021/01/25 01:05:50;;;;;;;4.37;2.00;;;;;;;2.21;93.94;96375.84;5049608;28;20213;-71
2021/01/25 01:08:17;;;;;;;5.97;1.63;;;;;;;2.36;92.10;96383.66;5043667;28;20681;-71
2021/01/25 01:10:44;;;;;;;3.47;2.20;;;;;;;2.37;92.33;96388.72;5043845;28;20225;-71
2021/01/25 01:13:11;;;;;;;2.17;1.53;;;;;;;2.39;91.56;96389.34;5046562;28;20202;-71
2021/01/25 01:15:39;;;;;;;2.10;1.53;;;;;;;2.29;90.74;96390.69;5045251;28;20205;-71
2021/01/25 01:18:06;;;;;;;5.33;1.80;;;;;;;2.12;93.05;96384.84;5044723;28;20672;-71
2021/01/25 01:20:32;;;;;;;2.60;1.40;;;;;;;2.28;91.27;96391.66;5050494;28;20225;-71
2021/01/25 01:22:59;;;;;;;5.67;1.73;;;;;;;2.00;94.35;96388.19;5047507;28;20293;-72
2021/01/25 01:25:26;;;;;;;3.77;1.80;;;;;;;2.08;93.22;96378.34;5043883;28;20206;-71
2021/01/25 01:27:53;;;;;;;3.63;1.90;;;;;;;2.25;93.42;96377.06;5044385;28;20681;-71
2021/01/25 01:30:20;;;;;;;3.27;1.50;;;;;;;2.25;93.21;96374.44;5046987;28;20225;-71
2021/01/25 01:32:48;;;;;;;5.80;2.00;;;;;;;1.76;96.88;96367.47;5053868;28;20224;-72
2021/01/25 01:35:15;;;;;;;4.50;1.57;;;;;;;1.68;100.00;96357.91;5046070;28;20793;-71
2021/01/25 01:37:41;;;;;;;3.83;1.70;;;;;;;1.65;98.83;96357.47;5047060;28;20205;-71
2021/01/25 01:40:10;;;;;;;2.97;1.80;;;;;;;1.83;97.02;96356.03;5049452;28;20229;-71
2021/01/25 01:42:37;;;;;;;3.27;1.80;;;;;;;1.78;97.60;96360.25;5050137;28;20244;-72
2021/01/25 01:45:05;;;;;;;3.27;1.93;;;;;;;1.74;98.15;96362.41;5050103;28;20206;-72
2021/01/25 01:47:33;;;;;;;4.07;2.00;;;;;;;1.71;98.75;96367.22;5048876;28;20213;-71
2021/01/25 01:50:00;;;;;;;3.57;1.53;;;;;;;1.67;100.00;96368.59;5049036;28;20225;-71
2021/01/25 01:52:27;;;;;;;7.10;2.07;;;;;;;1.68;100.00;96371.03;5041906;28;20798;-71
2021/01/25 01:54:57;;;;;;;4.40;2.07;;;;;;;1.61;100.00;96358.81;5050127;28;20204;-71
2021/01/25 01:57:24;;;;;;;4.33;2.33;;;;;;;1.65;100.00;96366.19;5051010;28;20198;-71
2021/01/25 01:59:51;;;;;;;3.13;1.93;;;;;;;1.67;100.00;96358.91;5050065;28;20233;-72
2021/01/25 02:02:18;;;;;;;4.00;2.20;;;;;;;1.68;100.00;96357.09;5049210;28;20222;-71
2021/01/25 02:04:45;;;;;;;3.27;1.97;;;;;;;1.50;100.00;96349.63;5047840;28;20212;-72
2021/01/25 02:07:13;;;;;;;3.57;2.00;;;;;;;1.62;100.00;96353.38;5046807;28;20262;-71
2021/01/25 02:09:44;;;;;;;3.70;1.93;;;;;;;1.64;100.00;96347.97;5047973;28;20229;-72
2021/01/25 02:12:12;;;;;;;5.03;2.60;;;;;;;1.60;100.00;96351.94;5040565;28;20197;-72
2021/01/25 02:14:39;;;;;;;4.00;2.20;;;;;;;1.62;100.00;96348.13;5043566;28;20216;-72
2021/01/25 02:17:06;;;;;;;3.80;2.20;;;;;;;1.62;100.00;96350.75;5041605;28;20206;-71
2021/01/25 02:19:37;;;;;;;4.83;2.43;;;;;;;1.64;100.00;96351.38;5044007;28;20736;-71
2021/01/25 02:22:16;;;;;;;5.83;2.10;;;;;;;1.70;100.00;96348.03;5047366;28;20323;-71
2021/01/25 02:24:46;;;;;;;6.30;2.00;;;;;;;1.84;100.00;96343.72;5042120;28;20568;-71
2021/01/25 02:27:42;;;;;;;4.10;1.90;;;;;;;1.96;100.00;96339.56;5048656;28;20209;-72
2021/01/25 02:30:11;;;;;;;5.13;2.00;;;;;;;1.92;100.00;96346.19;5004031;28;20221;-71
2021/01/25 02:32:39;;;;;;;5.20;2.23;;;;;;;1.96;100.00;96343.03;5050179;28;20229;-72
2021/01/25 02:35:08;;;;;;;5.50;2.37;;;;;;;1.93;100.00;96339.97;5047088;28;20476;-71
2021/01/25 02:37:35;;;;;;;4.43;2.13;;;;;;;1.95;100.00;96345.84;5047231;28;20206;-71
2021/01/25 02:40:04;;;;;;;6.20;2.50;;;;;;;2.01;100.00;96342.44;5050038;28;20221;-72
2021/01/25 02:42:31;;;;;;;3.57;2.23;;;;;;;1.95;100.00;96328.25;5044532;28;20600;-72
2021/01/25 02:44:59;;;;;;;3.60;2.37;;;;;;;2.04;100.00;96336.81;5043287;28;20687;-72
2021/01/25 02:47:26;;;;;;;4.53;2.40;;;;;;;2.17;100.00;96336.91;5052178;28;20197;-71
2021/01/25 02:49:53;;;;;;;5.53;2.30;;;;;;;2.16;100.00;96328.22;5047599;28;20244;-71
2021/01/25 02:52:19;;;;;;;5.33;2.10;;;;;;;2.11;100.00;96330.63;5049872;28;20251;-73
2021/01/25 02:54:46;;;;;;;4.80;2.10;;;;;;;1.96;100.00;96327.25;5047614;28;20210;-72
2021/01/25 02:57:14;;;;;;;3.30;2.10;;;;;;;2.21;100.00;96332.91;5047745;28;20224;-71
2021/01/25 02:59:42;;;;;;;6.10;2.20;;;;;;;2.14;100.00;96332.84;5052238;28;20229;-72
2021/01/25 03:02:11;;;;;;;3.60;2.33;;;;;;;2.18;100.00;96336.75;5050618;28;20341;-71
2021/01/25 03:04:38;;;;;;;4.20;2.17;;;;;;;2.39;100.00;96338.53;5052854;28;20217;-72
2021/01/25 03:07:05;;;;;;;4.83;2.60;;;;;;;2.33;100.00;96348.00;5048306;28;20227;-71
2021/01/25 03:09:32;;;;;;;4.87;2.37;;;;;;;2.25;100.00;96349.97;5045869;28;20224;-73
2021/01/25 03:12:01;;;;;;;4.93;2.37;;;;;;;2.25;100.00;96355.22;5044803;28;20259;-72
2021/01/25 03:14:28;;;;;;;4.50;2.40;;;;;;;2.31;100.00;96359.72;5052702;28;20283;-72
2021/01/25 03:16:55;;;;;;;4.23;2.27;;;;;;;1.97;100.00;96365.69;5053336;28;20255;-72
2021/01/25 03:19:22;;;;;;;3.60;1.83;;;;;;;2.10;100.00;96365.81;5045304;28;20666;-71
2021/01/25 03:21:50;;;;;;;3.33;2.50;;;;;;;2.00;100.00;96367.97;5051987;28;20230;-71
2021/01/25 03:24:17;;;;;;;4.73;2.20;;;;;;;1.86;100.00;96373.25;5050534;28;20666;-72
2021/01/25 03:26:44;;;;;;;4.93;2.37;;;;;;;1.37;100.00;96373.13;5051841;28;20209;-71
2021/01/25 03:29:11;;;;;;;6.57;2.23;;;;;;;1.69;100.00;96370.03;5051905;28;20229;-72
2021/01/25 03:31:39;;;;;;;3.20;2.20;;;;;;;1.31;100.00;96373.03;5052041;28;20202;-71
2021/01/25 03:34:07;;;;;;;7.37;2.70;;;;;;;1.37;100.00;96370.47;5045987;28;20205;-71
2021/01/25 03:36:35;;;;;;;5.70;3.00;;;;;;;1.09;100.00;96374.78;5046126;28;20202;-71
2021/01/25 03:39:02;;;;;;;10.43;3.07;;;;;;;1.07;100.00;96376.78;5045636;28;20229;-72
2021/01/25 03:41:29;;;;;;;3.37;2.60;;;;;;;1.30;100.00;96369.59;5048774;28;20266;-72
2021/01/25 03:43:56;;;;;;;5.47;2.80;;;;;;;1.24;100.00;96365.09;5051425;28;20206;-72
2021/01/25 03:46:23;;;;;;;4.90;2.60;;;;;;;1.47;100.00;96368.38;5050521;28;20201;-72
2021/01/25 03:48:50;;;;;;;4.50;2.43;;;;;;;1.58;100.00;96369.72;5050568;28;20733;-72
2021/01/25 03:51:19;;;;;;;9.30;2.83;;;;;;;1.41;100.00;96374.38;5050320;28;20205;-71
2021/01/25 03:53:46;;;;;;;4.37;2.60;;;;;;;1.13;100.00;96368.16;5051746;28;20209;-71
2021/01/25 03:56:13;;;;;;;4.90;2.97;;;;;;;1.11;100.00;96366.72;5049809;28;20201;-71
2021/01/25 03:58:41;;;;;;;4.67;2.90;;;;;;;1.17;100.00;96358.91;5052566;28;20210;-72
2021/01/25 04:01:08;;;;;;;8.60;2.97;;;;;;;1.14;100.00;96364.56;5051900;28;20236;-72
2021/01/25 04:03:34;;;;;;;5.50;2.90;;;;;;;1.03;100.00;96364.19;5052366;28;20288;-72
2021/01/25 04:06:01;;;;;;;4.87;3.00;;;;;;;0.99;100.00;96369.00;5043719;28;20563;-72
2021/01/25 04:08:28;;;;;;;5.83;2.77;;;;;;;1.02;100.00;96378.34;5051723;28;20662;-73
2021/01/25 04:10:56;;;;;;;6.27;3.13;;;;;;;1.05;100.00;96378.78;5046718;28;20201;-72
2021/01/25 04:13:23;;;;;;;4.67;3.03;;;;;;;1.04;100.00;96382.41;5051407;28;20232;-73
2021/01/25 04:15:49;;;;;;;4.17;2.73;;;;;;;1.01;100.00;96379.31;5049688;28;20206;-72
2021/01/25 04:18:16;;;;;;;6.07;2.77;;;;;;;1.13;100.00;96375.25;5051673;28;20232;-73
2021/01/25 04:20:43;;;;;;;4.63;2.50;;;;;;;1.39;100.00;96381.66;5050704;28;20232;-73
2021/01/25 04:23:10;;;;;;;5.27;2.63;;;;;;;1.11;100.00;96385.91;5048398;28;20212;-73
2021/01/25 04:25:36;;;;;;;5.83;3.37;;;;;;;1.09;100.00;96379.22;5050124;28;20214;-73
2021/01/25 04:28:04;;;;;;;3.43;2.67;;;;;;;1.17;100.00;96377.31;5052488;28;20212;-73
2021/01/25 04:30:31;;;;;;;7.13;3.47;;;;;;;1.14;100.00;96382.94;5051399;28;20225;-73
2021/01/25 04:32:58;;;;;;;5.00;3.07;;;;;;;1.12;100.00;96378.88;5048299;28;20209;-73
2021/01/25 04:35:25;;;;;;;4.37;3.20;;;;;;;1.36;100.00;96376.75;5046958;28;20209;-73
2021/01/25 04:37:52;;;;;;;6.50;3.37;;;;;;;1.50;100.00;96369.81;5051101;28;20662;-73
2021/01/25 04:40:18;;;;;;;5.70;3.30;;;;;;;1.34;100.00;96373.50;5048050;28;20229;-73
2021/01/25 04:42:45;;;;;;;5.40;3.87;;;;;;;1.30;100.00;96377.50;5048072;28;20226;-73
2021/01/25 04:45:14;;;;;;;4.80;3.57;;;;;;;1.51;100.00;96377.53;5047596;28;20251;-73
2021/01/25 04:47:42;;;;;;;5.50;3.30;;;;;;;1.34;100.00;96378.75;5044699;28;20213;-73
2021/01/25 04:50:10;;;;;;;7.10;3.90;;;;;;;1.36;100.00;96378.53;5045034;28;20229;-73
2021/01/25 04:52:36;;;;;;;7.10;3.30;;;;;;;1.68;100.00;96378.13;5051062;28;20205;-73
2021/01/25 04:55:04;;;;;;;6.33;3.37;;;;;;;1.61;100.00;96380.69;5049037;28;20292;-73
2021/01/25 04:57:32;;;;;;;6.33;3.40;;;;;;;1.47;100.00;96381.53;5046287;28;20203;-72
2021/01/25 05:00:01;;;;;;;7.97;4.80;;;;;;;1.42;100.00;96378.63;5049166;28;20232;-72
2021/01/25 05:02:29;;;;;;;6.53;3.40;;;;;;;1.23;100.00;96381.81;5048179;28;20279;-73
2021/01/25 05:04:55;;;;;;;4.80;3.57;;;;;;;1.57;100.00;96386.47;5048586;28;20198;-73
2021/01/25 05:07:22;;;;;;;5.30;3.13;;;;;;;1.50;100.00;96388.22;5047365;28;20209;-72
2021/01/25 05:09:49;;;;;;;6.23;3.40;;;;;;;1.51;100.00;96382.78;5049951;28;20638;-73
2021/01/25 05:12:16;;;;;;;7.60;4.00;;;;;;;1.54;100.00;96384.25;5054807;28;20209;-72
2021/01/25 05:14:43;;;;;;;4.47;3.10;;;;;;;1.42;100.00;96383.88;5046860;28;20216;-72
2021/01/25 05:17:12;;;;;;;6.27;3.37;;;;;;;1.55;100.00;96388.47;5050345;28;20201;-72
2021/01/25 05:19:41;;;;;;;5.97;3.10;;;;;;;1.95;100.00;96383.50;5048832;28;20237;-72
2021/01/25 05:22:14;;;;;;;5.47;3.20;;;;;;;1.40;100.00;96385.06;5050435;28;20231;-72
2021/01/25 05:24:45;;;;;;;4.97;2.93;;;;;;;1.56;100.00;96387.47;5044202;28;20210;-72
2021/01/25 05:27:20;;;;;;;8.53;3.17;;;;;;;1.58;100.00;96388.94;5049331;28;20580;-72
2021/01/25 05:29:47;;;;;;;5.60;3.00;;;;;;;1.36;100.00;96394.31;5047674;28;20227;-73
2021/01/25 05:32:14;;;;;;;6.77;3.50;;;;;;;1.50;100.00;96389.06;5046928;28;20194;-73
2021/01/25 05:34:41;;;;;;;5.57;3.50;;;;;;;1.50;100.00;96394.31;5040577;28;20202;-73
2021/01/25 05:37:14;;;;;;;8.13;3.23;;;;;;;1.76;100.00;96393.78;5046552;28;20210;-74
2021/01/25 05:39:45;;;;;;;4.83;3.27;;;;;;;1.96;100.00;96398.25;5048218;28;20221;-74
2021/01/25 05:42:12;;;;;;;5.83;3.37;;;;;;;1.92;100.00;96398.81;5042683;28;20233;-74
2021/01/25 05:44:39;;;;;;;4.97;3.57;;;;;;;1.63;100.00;96397.06;5051435;28;20206;-74
2021/01/25 05:47:07;;;;;;;5.77;3.50;;;;;;;1.55;100.00;96399.00;5051397;28;20255;-74
2021/01/25 05:49:33;;;;;;;4.53;2.93;;;;;;;1.59;100.00;96398.44;5051782;28;20217;-75
2021/01/25 05:52:01;;;;;;;7.67;3.40;;;;;;;1.66;100.00;96395.88;5043208;28;20202;-74
2021/01/25 05:54:28;;;;;;;6.17;3.47;;;;;;;1.76;100.00;96405.13;5050361;28;20212;-74
2021/01/25 05:56:55;;;;;;;5.57;3.63;;;;;;;1.60;100.00;96402.72;5047410;28;20202;-74
2021/01/25 05:59:22;;;;;;;8.77;3.80;;;;;;;1.60;100.00;96399.25;5049650;28;20221;-74
2021/01/25 06:01:49;;;;;;;6.40;2.97;;;;;;;1.88;100.00;96408.88;5047024;28;20597;-74
2021/01/25 06:04:17;;;;;;;5.30;3.60;;;;;;;1.82;100.00;96403.53;5047362;28;20214;-73
2021/01/25 06:06:54;;;;;;;5.83;3.73;;;;;;;1.97;100.00;96407.78;5051014;28;20227;-74
2021/01/25 06:09:27;;;;;;;5.17;3.30;;;;;;;1.96;100.00;96406.16;5051688;28;20246;-73
2021/01/25 06:12:03;;;;;;;7.90;4.17;;;;;;;2.28;100.00;96410.09;5047336;28;20635;-73
2021/01/25 06:14:35;;;;;;;10.40;3.97;;;;;;;2.30;100.00;96410.72;5042464;28;20197;-73
2021/01/25 06:17:01;;;;;;;7.83;4.03;;;;;;;2.38;100.00;96414.03;5043618;28;20720;-73
2021/01/25 06:19:30;;;;;;;7.87;4.00;;;;;;;2.44;100.00;96421.19;5050924;28;20225;-74
2021/01/25 06:21:58;;;;;;;8.10;3.87;;;;;;;2.34;100.00;96412.78;5050961;28;20279;-73
2021/01/25 06:24:26;;;;;;;9.23;3.30;;;;;;;2.08;100.00;96430.16;5051429;28;20201;-74
2021/01/25 06:26:55;;;;;;;5.40;3.33;;;;;;;2.04;100.00;96427.06;5050444;28;20204;-73
2021/01/25 06:29:23;;;;;;;3.83;3.30;;;;;;;2.26;100.00;96430.53;5047523;28;20229;-72
2021/01/25 06:31:54;;;;;;;11.47;3.63;;;;;;;2.32;100.00;96430.59;5048013;28;20202;-78
2021/01/25 06:34:21;;;;;;;8.07;3.47;;;;;;;2.25;100.00;96429.69;5051339;28;20189;-72
2021/01/25 06:36:51;;;;;;;8.93;3.70;;;;;;;2.30;100.00;96437.03;5053042;28;20202;-72
2021/01/25 06:39:25;;;;;;;6.67;3.23;;;;;;;2.28;100.00;96439.84;5052003;28;20221;-73
2021/01/25 06:42:01;;;;;;;9.60;3.63;;;;;;;2.14;100.00;96439.94;5050401;28;20220;-73
2021/01/25 06:44:29;;;;;;;6.00;3.20;;;;;;;2.18;100.00;96441.19;5054662;28;20293;-72
2021/01/25 06:46:57;;;;;;;5.97;3.03;;;;;;;2.17;100.00;96447.44;5048308;28;20201;-77
2021/01/25 06:49:24;;;;;;;7.07;3.37;;;;;;;2.15;100.00;96452.06;5050247;28;20229;-71
2021/01/25 06:51:52;;;;;;;9.57;3.40;;;;;;;2.06;100.00;96453.19;5052196;28;20198;-71
2021/01/25 06:54:23;;;;;;;5.90;3.70;;;;;;;2.17;100.00;96456.16;5054100;28;20343;-71
2021/01/25 06:56:54;;;;;;;9.07;3.67;;;;;;;2.25;100.00;96452.59;5052523;28;20205;-72
2021/01/25 06:59:22;;;;;;;7.60;3.40;;;;;;;2.21;100.00;96456.59;5046695;28;20584;-74
2021/01/25 07:01:50;;;;;;;6.87;3.23;;;;;;;2.30;100.00;96460.72;5052412;28;20724;-73
2021/01/25 07:04:19;;;;;;;9.90;4.10;;;;;;;2.30;100.00;96472.06;5055146;28;20208;-70
2021/01/25 07:06:49;;;;;;;7.00;4.00;;;;;;;2.42;100.00;96472.38;5051241;28;20266;-70
2021/01/25 07:09:24;;;;;;;8.30;3.27;;;;;;;2.38;100.00;96468.47;5054487;28;20224;-73
2021/01/25 07:11:53;;;;;;;10.60;3.40;;;;;;;2.36;100.00;96479.22;5053693;28;20201;-70
2021/01/25 07:14:24;;;;;;;9.37;3.60;;;;;;;2.45;100.00;96483.34;5050061;28;20221;-78
2021/01/25 07:16:53;;;;;;;8.03;3.93;;;;;;;2.38;100.00;96482.47;5053970;28;20674;-73
2021/01/25 07:19:20;;;;;;;7.83;3.40;;;;;;;2.45;100.00;96488.59;5053767;28;20736;-73
2021/01/25 07:21:49;;;;;;;9.57;3.47;;;;;;;2.12;100.00;96489.25;5050527;28;20302;-71
2021/01/25 07:24:20;;;;;;;5.47;3.43;;;;;;;2.30;100.00;96492.31;5049881;28;20204;-73
2021/01/25 07:26:50;;;;;;;9.63;3.20;;;;;;;2.33;100.00;96497.19;5053060;28;20209;-73
2021/01/25 07:29:18;;;;;;;4.00;3.37;;;;;;;2.45;100.00;96490.44;5050859;28;20598;-73
2021/01/25 07:31:45;;;;;;;4.53;3.10;;;;;;;2.56;100.00;96497.84;5050683;28;20280;-73
2021/01/25 07:34:13;;;;;;;5.67;3.70;;;;;;;2.53;100.00;96498.19;5053692;28;20202;-73
2021/01/25 07:36:40;;;;;;;6.43;3.50;;;;;;;2.45;100.00;96500.97;5051410;28;20204;-74
2021/01/25 07:39:08;;;;;;;6.93;3.43;;;;;;;2.35;100.00;96508.34;5047040;28;20225;-73
2021/01/25 07:41:36;;;;;;;6.33;2.67;;;;;;;2.39;100.00;96513.06;5050984;28;20220;-73
2021/01/25 07:44:05;;;;;;;9.30;3.50;;;;;;;2.58;100.00;96519.50;5053534;28;20213;-73
2021/01/25 07:46:33;;;;;;;7.53;3.60;;;;;;;2.64;100.00;96513.53;5052995;28;20198;-72
2021/01/25 07:48:59;;;;;;;6.33;3.30;;;;;;;2.74;100.00;96517.44;5053740;28;20222;-71
2021/01/25 07:51:28;;;;;;;5.50;3.33;;;;;;;2.66;100.00;96522.03;5051554;28;20213;-74
2021/01/25 07:53:55;;;;;;;9.63;3.47;;;;;;;2.16;100.00;96527.38;5053285;28;20228;-72
2021/01/25 07:56:24;;;;;;;5.93;3.53;;;;;;;2.16;100.00;96522.94;5053592;28;20201;-72
2021/01/25 07:59:02;;;;;;;5.83;2.90;;;;;;;2.28;100.00;96523.25;5053645;28;20231;-72
2021/01/25 08:01:31;;;;;;;6.70;3.57;;;;;;;2.09;100.00;96529.13;5052667;28;20220;-72
2021/01/25 08:04:02;;;;;;;9.73;2.83;;;;;;;2.37;100.00;96536.13;5052651;28;20198;-72
2021/01/25 08:06:31;;;;;;;8.63;3.50;;;;;;;2.47;100.00;96531.38;5052958;28;20208;-72
2021/01/25 08:08:58;;;;;;;6.50;3.20;;;;;;;2.51;100.00;96531.81;5052763;28;20578;-72
2021/01/25 08:11:25;;;;;;;6.10;3.00;;;;;;;2.58;100.00;96540.56;5052801;28;20198;-73
2021/01/25 08:13:58;;;;;;;8.10;3.30;;;;;;;2.67;100.00;96544.72;5053021;28;20212;-73
2021/01/25 08:16:28;;;;;;;5.97;3.10;;;;;;;2.58;100.00;96540.56;5053323;28;20590;-72
2021/01/25 08:18:59;;;;;;;8.50;3.20;;;;;;;2.63;100.00;96548.72;5052463;28;20717;-72
2021/01/25 08:21:29;;;;;;;4.33;2.87;;;;;;;2.63;100.00;96551.38;5050460;28;20234;-72
2021/01/25 08:23:59;;;;;;;7.33;2.80;;;;;;;2.48;100.00;96547.97;5052940;28;20193;-72
2021/01/25 08:26:28;;;;;;;6.03;2.67;;;;;;;2.55;100.00;96554.94;5049986;28;20654;-70
2021/01/25 08:28:57;;;;;;;5.37;2.90;;;;;;;2.62;100.00;96558.47;5052585;28;20229;-70
2021/01/25 08:31:31;;;;;;;7.97;3.33;;;;;;;2.67;100.00;96565.78;5050263;28;20217;-69
2021/01/25 08:34:00;;;;;;;10.43;4.03;;;;;;;2.91;100.00;96566.25;5045767;28;20201;-70
2021/01/25 08:36:32;;;;;;;6.33;3.87;;;;;;;3.03;100.00;96571.81;5049418;28;20235;-71
2021/01/25 08:39:09;;;;;;;7.77;3.60;;;;;;;3.16;100.00;96577.22;5045817;28;20222;-71
2021/01/25 08:41:37;;;;;;;11.20;4.37;;;;;;;3.42;100.00;96575.63;5045945;28;20235;-70
2021/01/25 08:44:12;;;;;;;5.60;3.43;;;;;;;3.33;100.00;96573.28;5052599;28;20205;-71
2021/01/25 08:46:39;;;;;;;9.20;3.37;;;;;;;3.38;100.00;96582.28;5052682;28;20201;-72
2021/01/25 08:49:11;;;;;;;5.70;3.33;;;;;;;3.44;100.00;96573.59;5044742;28;20569;-69
2021/01/25 08:51:38;;;;;;;7.10;3.20;;;;;;;3.05;100.00;96586.44;5050595;28;20205;-72
2021/01/25 08:54:07;;;;;;;12.33;3.50;;;;;;;3.06;100.00;96588.06;5052513;28;20193;-71
2021/01/25 08:56:36;;;;;;;10.53;3.43;;;;;;;3.03;100.00;96587.63;5045287;28;20202;-71
2021/01/25 08:59:11;;;;;;;6.87;3.70;;;;;;;2.66;100.00;96593.97;5052407;28;20598;-73
2021/01/25 09:01:38;;;;;;;10.53;3.40;;;;;;;3.08;100.00;96590.50;5048633;28;20220;-72
2021/01/25 09:04:06;;;;;;;6.53;3.60;;;;;;;3.19;100.00;96598.72;5051518;28;20199;-71
2021/01/25 09:06:34;;;;;;;10.20;3.53;;;;;;;2.92;100.00;96604.75;5050691;28;20210;-71
2021/01/25 09:09:02;;;;;;;9.63;3.53;;;;;;;2.52;100.00;96602.72;5043872;28;20255;-71
2021/01/25 09:11:29;;;;;;;5.93;3.50;;;;;;;2.98;100.00;96606.66;5051077;28;20258;-72
2021/01/25 09:13:56;;;;;;;5.97;3.47;;;;;;;2.80;100.00;96606.25;5050194;28;20205;-71
2021/01/25 09:16:23;;;;;;;6.73;3.73;;;;;;;3.11;100.00;96612.03;5048724;28;20213;-71
2021/01/25 09:18:50;;;;;;;9.47;3.90;;;;;;;3.75;100.00;96613.56;5048208;28;20221;-71
2021/01/25 09:21:17;;;;;;;7.07;3.60;;;;;;;3.90;100.00;96616.91;5048985;28;20201;-70
2021/01/25 09:23:44;;;;;;;7.30;3.80;;;;;;;3.71;100.00;96617.59;5048664;28;20220;-72
2021/01/25 09:26:10;;;;;;;8.03;3.77;;;;;;;3.99;100.00;96618.41;5048783;28;20198;-72
2021/01/25 09:28:37;;;;;;;6.30;3.80;;;;;;;4.03;100.00;96624.09;5051692;28;20194;-71
2021/01/25 09:31:04;;;;;;;8.93;3.83;;;;;;;3.97;100.00;96628.31;5049206;28;20201;-72
2021/01/25 09:33:32;;;;;;;5.70;3.70;;;;;;;3.72;100.00;96628.97;5047558;28;20673;-71
2021/01/25 09:35:59;;;;;;;8.23;4.60;;;;;;;3.63;100.00;96644.13;5049527;28;20201;-70
2021/01/25 09:38:25;;;;;;;9.53;4.33;;;;;;;3.90;100.00;96642.47;5047608;28;20340;-72
2021/01/25 09:40:52;;;;;;;6.40;4.03;;;;;;;3.75;100.00;96645.22;5049048;28;20229;-70
2021/01/25 09:43:19;;;;;;;9.00;4.73;;;;;;;3.37;100.00;96653.63;5045789;28;20762;-72
2021/01/25 09:45:46;;;;;;;10.87;3.90;;;;;;;3.66;100.00;96654.28;5047643;28;20210;-72
2021/01/25 09:48:13;;;;;;;5.87;3.73;;;;;;;3.89;100.00;96657.50;5040686;28;20217;-73
2021/01/25 09:50:40;;;;;;;8.80;4.70;;;;;;;3.53;100.00;96667.38;5050134;28;20237;-73
2021/01/25 09:53:07;;;;;;;6.97;3.70;;;;;;;3.21;100.00;96665.22;5048308;28;20201;-71
2021/01/25 09:55:34;;;;;;;5.80;4.03;;;;;;;3.70;100.00;96671.38;5049270;28;20233;-72
2021/01/25 09:58:02;;;;;;;6.93;3.63;;;;;;;3.94;100.00;96665.66;5048184;28;20202;-71
2021/01/25 10:00:28;;;;;;;8.50;4.13;;;;;;;4.16;100.00;96672.50;5045967;28;20222;-73
2021/01/25 10:02:55;;;;;;;9.20;4.30;;;;;;;4.16;100.00;96675.16;5048126;28;20584;-71
2021/01/25 10:05:22;;;;;;;11.70;4.10;;;;;;;4.38;100.00;96684.66;5053092;28;20202;-73
2021/01/25 10:07:50;;;;;;;11.83;4.00;;;;;;;4.34;100.00;96685.22;5050089;28;20202;-72
2021/01/25 10:10:17;;;;;;;5.43;4.20;;;;;;;4.34;100.00;96687.84;5050969;28;20225;-72
2021/01/25 10:12:44;;;;;;;9.27;4.00;;;;;;;4.36;100.00;96688.50;5050693;28;20655;-71
2021/01/25 10:15:14;;;;;;;13.30;4.60;;;;;;;4.55;100.00;96696.50;5048893;28;20202;-73
2021/01/25 10:17:41;;;;;;;6.63;4.17;;;;;;;4.47;100.00;96701.94;5052847;28;21587;-71
2021/01/25 10:20:09;;;;;;;5.83;2.90;;;;;;;4.86;100.00;96696.03;5050898;28;20256;-72
2021/01/25 10:22:36;;;;;;;10.13;3.47;;;;;;;4.67;100.00;96699.44;5040081;28;20234;-74
2021/01/25 10:25:04;;;;;;;7.20;3.20;;;;;;;4.09;100.00;96705.16;5054265;28;20209;-74
2021/01/25 10:27:31;;;;;;;7.30;3.07;;;;;;;4.68;100.00;96707.13;5051794;28;20213;-73
2021/01/25 10:29:58;;;;;;;5.90;3.10;;;;;;;5.00;100.00;96709.13;5051344;28;20229;-75
2021/01/25 10:32:25;;;;;;;5.00;2.47;;;;;;;5.33;100.00;96712.66;5052981;28;20225;-72
2021/01/25 10:34:52;;;;;;;4.70;2.10;;;;;;;5.38;100.00;96704.94;5053607;28;20211;-73
2021/01/25 10:37:19;;;;;;;11.50;5.13;;;;;;;5.05;100.00;96722.56;5048987;28;20610;-73
2021/01/25 10:39:47;;;;;;;4.97;2.33;;;;;;;5.15;100.00;96725.66;5052964;28;20723;-73
2021/01/25 10:42:15;;;;;;;3.30;2.20;;;;;;;5.07;100.00;96727.66;5048657;28;20231;-72
2021/01/25 10:44:41;;;;;;;4.17;2.40;;;;;;;4.44;100.00;96720.84;5049233;28;20215;-72
2021/01/25 10:47:12;;;;;;;3.17;1.60;;;;;;;3.99;100.00;96731.88;5044927;28;20202;-73
2021/01/25 10:49:39;;;;;;;3.07;1.47;;;;;;;4.18;100.00;96736.50;5051570;28;20222;-74
2021/01/25 10:52:06;;;;;;;2.17;1.67;;;;;;;4.18;100.00;96728.59;5049622;28;20202;-73
2021/01/25 10:54:32;;;;;;;1.53;1.20;;;;;;;4.45;100.00;96732.19;5048594;28;20206;-73
2021/01/25 10:56:59;;;;;;;4.00;1.80;;;;;;;4.74;100.00;96742.53;5050622;28;20566;-74
2021/01/25 10:59:29;;;;;;;3.27;1.60;;;;;;;4.93;100.00;96739.97;5052523;28;20284;-72
2021/01/25 11:01:56;;;;;;;7.50;2.10;;;;;;;4.46;100.00;96744.38;5051543;28;20756;-74
2021/01/25 11:04:22;;;;;;;2.67;1.53;;;;;;;5.65;100.00;96741.03;5050555;28;20202;-74
2021/01/25 11:06:49;;;;;;;1.63;1.33;;;;;;;5.32;100.00;96748.06;5049558;28;20213;-74
2021/01/25 11:09:17;;;;;;;2.43;1.37;;;;;;;5.49;100.00;96748.53;5053602;28;20225;-72
2021/01/25 11:11:44;;;;;;;2.97;1.43;;;;;;;4.69;100.00;96752.88;5051481;28;20255;-73
2021/01/25 11:14:11;;;;;;;3.37;2.23;;;;;;;4.70;100.00;96752.69;5052164;28;20204;-73
2021/01/25 11:16:38;;;;;;;1.67;1.40;;;;;;;5.09;100.00;96752.88;5051299;28;20207;-72
2021/01/25 11:19:05;;;;;;;3.03;1.33;;;;;;;5.68;100.00;96747.78;5054017;28;20270;-71
2021/01/25 11:21:32;;;;;;;1.70;1.37;;;;;;;5.68;100.00;96753.06;5050914;28;20212;-71
2021/01/25 11:23:59;;;;;;;1.63;1.33;;;;;;;5.08;100.00;96750.44;5051461;28;20205;-83
2021/01/25 11:26:27;;;;;;;1.73;1.50;;;;;;;6.29;100.00;96754.56;5057068;28;20676;-81
2021/01/25 11:28:55;;;;;;;1.83;1.00;;;;;;;5.95;100.00;96758.19;5057932;28;20244;-82
2021/01/25 11:31:22;;;;;;;1.40;1.00;;;;;;;6.50;100.00;96757.78;5058580;28;20212;-82
2021/01/25 11:33:50;;;;;;;3.50;1.40;;;;;;;6.38;100.00;96753.31;5059303;28;20299;-82
2021/01/25 11:36:17;;;;;;;1.97;1.30;;;;;;;5.62;100.00;96765.25;5060034;28;20211;-84
2021/01/25 11:38:44;;;;;;;3.03;1.20;;;;;;;5.90;100.00;96767.78;5057773;28;20661;-82